OITL

Ardabil Airport

Airport
ICAO code
OITL
IATA Code
ADU
Summary
ICAO Region
MID
ICAO Territory
Location

Gilan Deh, Ardabil

Serving
Ardabil
Elevation
4315 ft
Coordinates
38° 19' 27" N , 48° 25' 13" E
KCC
Metar
Observation
OITL 070400Z 08008KT 9999 FEW005 OVC025 M01/M02 Q1022 NOSIG
Station
Ardabil
Date/Time
2022-12-07 04:00:00
Wind direction
80°
Wind speed
08 kts
Lowest cloud amount
few clouds
Temperature
-1°C
Dew point
-2°C
Humidity
92%
QNH
1022 hPa
Weather condition
n/a

Airport serving Ardabil in north-western Iran.

Climatology

Cold Semi-arid climate (Köppen climate classification BSk).

Runways

Designator Length Width Surface Rops
15/33 3299 45 PEM No/No

Airport map

Aerial View

SKYbrary Partners:

Safety knowledge contributed by: